createdAt,value
2023-05-14T00:01:39.766Z,59.37
2023-05-14T00:04:24.793Z,59.80
2023-05-14T00:07:09.592Z,60.68
2023-05-14T00:09:54.549Z,62.09
2023-05-14T00:12:39.296Z,61.72
2023-05-14T00:15:24.079Z,62.44
2023-05-14T00:18:09.310Z,62.20
2023-05-14T00:20:54.238Z,62.98
2023-05-14T00:23:39.289Z,63.18
2023-05-14T00:26:24.083Z,63.29
2023-05-14T00:29:09.156Z,63.68
2023-05-14T00:31:54.055Z,63.72
2023-05-14T00:34:38.952Z,63.49
2023-05-14T00:37:23.979Z,63.24
2023-05-14T00:40:08.997Z,63.41
2023-05-14T00:42:54.207Z,62.85
2023-05-14T00:45:39.124Z,63.09
2023-05-14T00:48:24.180Z,63.01
2023-05-14T00:51:09.302Z,62.92
2023-05-14T00:53:54.236Z,62.28
2023-05-14T00:56:39.164Z,63.12
2023-05-14T00:59:24.201Z,63.08
2023-05-14T01:02:09.199Z,62.95
2023-05-14T01:04:53.988Z,63.65
2023-05-14T01:07:39.029Z,64.38
2023-05-14T01:10:24.323Z,64.59
2023-05-14T01:13:09.531Z,63.92
2023-05-14T01:15:54.392Z,63.77
2023-05-14T01:18:39.399Z,65.10
2023-05-14T01:21:24.458Z,65.05
2023-05-14T01:24:09.345Z,65.36
2023-05-14T01:26:54.165Z,65.07
2023-05-14T01:29:39.078Z,65.26
2023-05-14T01:32:24.064Z,65.03
2023-05-14T01:35:08.873Z,65.35
2023-05-14T01:37:53.819Z,64.58
2023-05-14T01:40:38.482Z,65.44
2023-05-14T01:43:23.500Z,65.70
2023-05-14T01:46:08.688Z,65.60
2023-05-14T01:48:53.631Z,65.53
2023-05-14T01:51:38.539Z,65.29
2023-05-14T01:54:23.474Z,65.17
2023-05-14T01:57:08.490Z,64.69
2023-05-14T01:59:53.467Z,64.75
2023-05-14T02:02:38.600Z,64.87
2023-05-14T02:05:23.560Z,65.01
2023-05-14T02:08:08.473Z,64.84
2023-05-14T02:10:53.512Z,65.20
2023-05-14T02:13:38.261Z,64.79
2023-05-14T02:16:23.274Z,64.34
2023-05-14T02:19:08.213Z,64.18
2023-05-14T02:21:53.072Z,63.76
2023-05-14T02:24:38.176Z,64.27
2023-05-14T02:27:23.131Z,63.77
2023-05-14T02:30:08.082Z,64.15
2023-05-14T02:32:53.164Z,64.29
2023-05-14T02:35:37.960Z,64.84
2023-05-14T02:38:22.945Z,65.11
2023-05-14T02:41:07.936Z,65.48
2023-05-14T02:43:53.061Z,65.04
2023-05-14T02:46:38.121Z,64.60
2023-05-14T02:49:22.757Z,64.08
2023-05-14T02:52:07.751Z,64.19
2023-05-14T02:54:52.739Z,64.47
2023-05-14T02:57:37.702Z,64.31
2023-05-14T03:00:24.992Z,63.90
2023-05-14T03:03:10.252Z,64.21
2023-05-14T03:05:55.958Z,63.30
2023-05-14T03:08:40.828Z,63.20
2023-05-14T03:11:25.860Z,63.24
2023-05-14T03:14:10.990Z,64.92
2023-05-14T03:16:55.930Z,65.69
2023-05-14T03:19:40.744Z,66.74
2023-05-14T03:22:25.743Z,66.76
2023-05-14T03:25:10.604Z,66.83
2023-05-14T03:27:55.618Z,66.23
2023-05-14T03:30:40.646Z,66.09
2023-05-14T03:33:25.719Z,66.50
2023-05-14T03:36:10.682Z,66.43
2023-05-14T03:38:55.733Z,66.07
2023-05-14T03:41:40.766Z,65.73
2023-05-14T03:44:25.782Z,65.45
2023-05-14T03:47:10.554Z,64.94
2023-05-14T03:49:55.555Z,64.69
2023-05-14T03:52:40.558Z,64.31
2023-05-14T03:55:25.633Z,64.09
2023-05-14T03:58:10.661Z,64.35
2023-05-14T04:00:55.521Z,64.33
2023-05-14T04:03:40.687Z,64.47
2023-05-14T04:06:25.496Z,64.00
2023-05-14T04:09:10.456Z,63.75
2023-05-14T04:11:55.325Z,63.24
2023-05-14T04:14:40.320Z,63.44
2023-05-14T04:17:25.180Z,63.11
2023-05-14T04:20:10.013Z,62.98
2023-05-14T04:22:54.947Z,62.71
2023-05-14T04:25:39.895Z,63.32
2023-05-14T04:28:24.931Z,64.22
2023-05-14T04:31:11.103Z,64.73
2023-05-14T04:33:56.235Z,65.32
2023-05-14T04:36:41.258Z,65.59
2023-05-14T04:39:26.261Z,64.79
2023-05-14T04:42:11.411Z,64.27
2023-05-14T04:44:56.412Z,63.97
2023-05-14T04:47:41.361Z,64.80
2023-05-14T04:50:26.468Z,64.75
2023-05-14T04:53:11.305Z,64.94
2023-05-14T04:55:56.162Z,64.59
2023-05-14T04:58:41.164Z,64.67
2023-05-14T05:01:26.341Z,64.33
2023-05-14T05:04:11.318Z,64.38
2023-05-14T05:06:56.427Z,64.25
2023-05-14T05:09:41.044Z,64.31
2023-05-14T05:12:26.090Z,64.71
2023-05-14T05:15:11.102Z,64.98
2023-05-14T05:17:56.454Z,65.32
2023-05-14T05:20:41.392Z,65.50
2023-05-14T05:23:26.374Z,65.40
2023-05-14T05:26:11.371Z,64.73
2023-05-14T05:28:56.437Z,64.57
2023-05-14T05:31:41.630Z,63.77
2023-05-14T05:34:26.539Z,63.50
2023-05-14T05:37:11.544Z,63.33
2023-05-14T05:39:56.492Z,62.86
2023-05-14T05:42:41.480Z,63.14
2023-05-14T05:45:27.456Z,63.57
2023-05-14T05:48:12.350Z,65.98
2023-05-14T05:50:57.596Z,65.65
2023-05-14T05:53:42.362Z,64.72
2023-05-14T05:56:27.504Z,64.88
2023-05-14T05:59:12.338Z,65.34
2023-05-14T06:01:57.377Z,65.75
2023-05-14T06:04:42.374Z,65.84
2023-05-14T06:07:27.250Z,65.81
2023-05-14T06:10:12.316Z,65.20
2023-05-14T06:12:57.339Z,65.54
2023-05-14T06:15:42.407Z,65.74
2023-05-14T06:18:27.337Z,66.96
2023-05-14T06:21:12.226Z,67.87
2023-05-14T06:23:57.179Z,67.52
2023-05-14T06:26:42.179Z,68.13
2023-05-14T06:29:29.417Z,68.32
2023-05-14T06:32:14.185Z,67.78
2023-05-14T06:34:59.038Z,69.14
2023-05-14T06:37:43.905Z,67.91
2023-05-14T06:40:30.336Z,68.79
2023-05-14T06:43:15.350Z,68.40
2023-05-14T06:46:00.325Z,68.23
2023-05-14T06:48:51.180Z,68.22
2023-05-14T06:51:36.419Z,68.15
2023-05-14T06:54:21.438Z,68.98
2023-05-14T06:57:06.292Z,68.72
2023-05-14T06:59:51.174Z,69.82
2023-05-14T07:02:36.267Z,68.12
2023-05-14T07:05:22.645Z,67.18
2023-05-14T07:08:07.965Z,67.40
2023-05-14T07:10:53.071Z,67.39
2023-05-14T07:13:38.056Z,67.48
2023-05-14T07:16:23.138Z,67.30
2023-05-14T07:19:08.092Z,67.98
2023-05-14T07:21:52.908Z,67.67
2023-05-14T07:24:37.661Z,67.50
2023-05-14T07:27:22.642Z,67.49
2023-05-14T07:30:07.616Z,67.10
2023-05-14T07:32:52.442Z,66.74
2023-05-14T07:35:37.463Z,66.98
2023-05-14T07:38:22.306Z,66.84
2023-05-14T07:41:07.190Z,66.80
2023-05-14T07:43:52.111Z,66.62
2023-05-14T07:46:36.919Z,66.01
2023-05-14T07:49:21.762Z,65.79
2023-05-14T07:52:06.636Z,65.51
2023-05-14T07:54:51.566Z,66.09
2023-05-14T07:57:36.967Z,67.10
2023-05-14T08:00:22.345Z,66.03
2023-05-14T08:03:07.691Z,65.44
2023-05-14T08:05:52.670Z,65.96
2023-05-14T08:08:37.679Z,66.04
2023-05-14T08:11:22.541Z,66.14
2023-05-14T08:14:07.706Z,67.21
2023-05-14T08:16:52.549Z,67.00
2023-05-14T08:19:37.582Z,66.22
2023-05-14T08:22:22.309Z,64.76
2023-05-14T08:25:07.438Z,66.26
2023-05-14T08:27:55.540Z,66.46
2023-05-14T08:30:55.058Z,64.00
2023-05-14T08:33:40.871Z,66.02
2023-05-14T08:36:26.020Z,65.48
2023-05-14T08:39:12.020Z,64.59
2023-05-14T08:42:12.784Z,64.35
2023-05-14T08:45:01.984Z,63.45
2023-05-14T08:47:49.044Z,63.21
2023-05-14T08:50:34.105Z,61.82
2023-05-14T08:53:19.205Z,65.04
2023-05-14T08:56:04.349Z,66.56
2023-05-14T08:58:49.292Z,65.59
2023-05-14T09:01:34.230Z,65.99
2023-05-14T09:04:19.471Z,63.33
2023-05-14T09:07:04.241Z,62.65
2023-05-14T09:09:49.397Z,61.16
2023-05-14T09:12:34.257Z,60.47
2023-05-14T09:15:19.524Z,60.25
2023-05-14T09:18:04.625Z,59.62
2023-05-14T09:20:50.416Z,58.85
2023-05-14T09:23:35.580Z,59.01
2023-05-14T09:26:20.512Z,58.37
2023-05-14T09:29:05.512Z,58.14
2023-05-14T09:31:50.500Z,60.37
2023-05-14T09:34:35.408Z,60.88
2023-05-14T09:37:20.380Z,60.35
2023-05-14T09:40:05.488Z,60.12
2023-05-14T09:42:50.545Z,60.23
2023-05-14T09:45:35.409Z,60.55
2023-05-14T09:48:20.493Z,61.45
2023-05-14T09:51:05.368Z,60.86
2023-05-14T09:53:50.454Z,57.54
2023-05-14T09:56:35.440Z,57.26
2023-05-14T09:59:20.543Z,55.98
2023-05-14T10:02:05.486Z,58.22
2023-05-14T10:04:50.636Z,59.60
2023-05-14T10:07:35.442Z,59.06
2023-05-14T10:10:20.464Z,57.81
2023-05-14T10:13:05.462Z,57.34
2023-05-14T10:15:50.248Z,56.25
2023-05-14T10:18:35.318Z,56.25
2023-05-14T10:21:20.332Z,55.66
2023-05-14T10:24:05.328Z,54.64
2023-05-14T10:26:50.139Z,56.51
2023-05-14T10:29:35.202Z,55.71
2023-05-14T10:32:20.260Z,57.88
2023-05-14T10:35:05.141Z,56.10
2023-05-14T10:37:50.275Z,56.88
2023-05-14T10:40:35.095Z,57.50
2023-05-14T10:43:20.206Z,55.96
2023-05-14T10:46:05.163Z,54.02
2023-05-14T10:48:50.347Z,54.32
2023-05-14T10:51:35.491Z,55.63
2023-05-14T10:54:20.308Z,55.92
2023-05-14T10:57:05.242Z,55.95
2023-05-14T10:59:50.084Z,55.57
2023-05-14T11:02:35.110Z,55.34
2023-05-14T11:05:20.115Z,56.15
2023-05-14T11:08:05.166Z,54.83
2023-05-14T11:10:50.088Z,52.06
2023-05-14T11:13:35.217Z,54.08
2023-05-14T11:16:23.277Z,53.32
2023-05-14T11:19:09.128Z,52.80
2023-05-14T11:21:54.103Z,51.79
2023-05-14T11:24:38.958Z,51.31
2023-05-14T11:27:23.970Z,53.17
2023-05-14T11:30:08.886Z,54.00
2023-05-14T11:32:53.960Z,49.15
2023-05-14T11:35:38.890Z,51.46
2023-05-14T11:38:23.747Z,53.99
2023-05-14T11:41:08.788Z,51.78
2023-05-14T11:43:53.658Z,50.81
2023-05-14T11:46:38.731Z,47.84
2023-05-14T11:49:23.455Z,46.63
2023-05-14T11:52:08.639Z,47.76
2023-05-14T11:54:53.842Z,48.17
2023-05-14T11:57:38.815Z,49.25
2023-05-14T12:00:24.069Z,48.08
2023-05-14T12:03:09.329Z,48.69
2023-05-14T12:05:54.247Z,48.76
2023-05-14T12:08:39.138Z,48.63
2023-05-14T12:11:24.024Z,47.27
2023-05-14T12:14:09.048Z,48.59
2023-05-14T12:16:53.979Z,47.27
2023-05-14T12:19:39.096Z,47.25
2023-05-14T12:22:24.025Z,44.79
2023-05-14T12:25:09.028Z,44.63
2023-05-14T12:27:53.839Z,43.52
2023-05-14T12:30:38.887Z,44.65
2023-05-14T12:33:23.796Z,44.76
2023-05-14T12:38:56.311Z,46.43
2023-05-14T12:41:41.285Z,44.96
2023-05-14T12:44:26.315Z,46.46
2023-05-14T12:47:11.276Z,46.82
2023-05-14T12:49:56.279Z,46.31
2023-05-14T12:52:41.317Z,44.93
2023-05-14T12:55:27.350Z,44.44
2023-05-14T12:58:12.385Z,44.92
2023-05-14T13:00:57.389Z,44.07
2023-05-14T13:03:42.245Z,46.55
2023-05-14T13:06:26.996Z,45.11
2023-05-14T13:09:11.966Z,42.70
2023-05-14T13:11:56.922Z,42.60
2023-05-14T13:14:41.941Z,41.26
2023-05-14T13:17:27.049Z,41.55
2023-05-14T13:20:12.097Z,41.39
2023-05-14T13:22:57.100Z,39.73
2023-05-14T13:25:42.070Z,42.89
2023-05-14T13:28:27.034Z,41.37
2023-05-14T13:31:11.868Z,42.36
2023-05-14T13:33:56.666Z,42.15
2023-05-14T13:36:41.785Z,39.79
2023-05-14T13:39:26.791Z,39.89
2023-05-14T13:42:11.920Z,39.78
2023-05-14T13:44:56.726Z,39.52
2023-05-14T13:47:41.740Z,39.88
2023-05-14T13:50:26.600Z,37.91
2023-05-14T13:53:11.612Z,37.17
2023-05-14T13:55:56.665Z,36.36
2023-05-14T13:58:41.532Z,37.30
2023-05-14T14:01:26.740Z,36.63
2023-05-14T14:04:11.543Z,37.45
2023-05-14T14:06:56.574Z,38.65
2023-05-14T14:09:41.449Z,38.16
2023-05-14T14:12:26.542Z,38.92
2023-05-14T14:15:11.392Z,37.98
2023-05-14T14:17:56.510Z,38.67
2023-05-14T14:20:41.464Z,39.96
2023-05-14T14:23:26.420Z,41.98
2023-05-14T14:26:11.456Z,40.65
2023-05-14T14:28:56.421Z,42.53
2023-05-14T14:31:41.413Z,44.76
2023-05-14T14:34:26.158Z,43.76
2023-05-14T14:37:11.225Z,42.35
2023-05-14T14:39:56.057Z,42.53
2023-05-14T14:42:41.172Z,43.21
2023-05-14T14:45:26.070Z,42.40
2023-05-14T14:48:11.009Z,41.50
2023-05-14T14:50:55.934Z,41.26
2023-05-14T14:53:40.823Z,41.02
2023-05-14T14:56:25.814Z,40.96
2023-05-14T14:59:10.809Z,42.22
2023-05-14T15:01:55.780Z,42.78
2023-05-14T15:04:40.854Z,43.09
2023-05-14T15:07:25.865Z,43.60
2023-05-14T15:10:10.999Z,42.01
2023-05-14T15:12:55.904Z,38.83
2023-05-14T15:15:40.986Z,39.21
2023-05-14T15:18:26.032Z,40.12
2023-05-14T15:21:10.915Z,38.21
2023-05-14T15:23:55.547Z,38.22
2023-05-14T15:26:40.262Z,38.38
2023-05-14T15:29:25.308Z,38.27
2023-05-14T15:32:10.305Z,37.73
2023-05-14T15:34:55.093Z,40.68
2023-05-14T15:37:39.758Z,41.80
2023-05-14T15:40:24.740Z,41.06
2023-05-14T15:43:09.884Z,41.22
2023-05-14T15:45:54.891Z,42.17
2023-05-14T15:48:39.720Z,41.66
2023-05-14T15:51:26.460Z,40.50
2023-05-14T15:54:11.559Z,41.14
2023-05-14T15:56:56.572Z,42.34
2023-05-14T15:59:41.363Z,41.37
2023-05-14T16:02:26.161Z,41.45
2023-05-14T16:05:11.187Z,40.53
2023-05-14T16:07:55.819Z,40.54
2023-05-14T16:10:40.974Z,39.74
2023-05-14T16:13:26.124Z,39.79
2023-05-14T16:16:11.156Z,37.78
2023-05-14T16:18:56.187Z,37.92
2023-05-14T16:21:41.002Z,38.21
2023-05-14T16:24:26.113Z,38.19
2023-05-14T16:27:10.978Z,39.88
2023-05-14T16:29:56.938Z,39.65
2023-05-14T16:32:42.114Z,40.14
2023-05-14T16:35:27.153Z,39.27
2023-05-14T16:38:12.334Z,37.61
2023-05-14T16:40:56.990Z,38.39
2023-05-14T16:43:41.610Z,37.60
2023-05-14T16:46:26.427Z,38.09
2023-05-14T16:49:11.558Z,39.47
2023-05-14T16:51:56.304Z,40.94
2023-05-14T16:54:41.073Z,40.70
2023-05-14T16:57:25.707Z,40.01
2023-05-14T17:00:10.739Z,39.82
2023-05-14T17:02:55.493Z,40.89
2023-05-14T17:05:40.439Z,41.37
2023-05-14T17:08:25.435Z,42.97
2023-05-14T17:11:12.427Z,44.15
2023-05-14T17:13:57.685Z,43.62
2023-05-14T17:16:42.710Z,44.84
2023-05-14T17:19:27.704Z,44.58
2023-05-14T17:22:12.587Z,45.74
2023-05-14T17:24:57.454Z,46.67
2023-05-14T17:27:44.366Z,46.39
2023-05-14T17:30:29.186Z,46.08
2023-05-14T17:33:14.294Z,46.12
2023-05-14T17:35:59.303Z,45.97
2023-05-14T17:38:44.271Z,44.56
2023-05-14T17:41:29.410Z,43.90
2023-05-14T17:44:14.242Z,43.13
2023-05-14T17:46:59.381Z,42.50
2023-05-14T17:49:44.166Z,41.96
2023-05-14T17:52:29.179Z,42.45
2023-05-14T17:55:13.726Z,42.13
2023-05-14T17:57:58.735Z,42.24
2023-05-14T18:00:45.708Z,41.61
2023-05-14T18:03:30.988Z,41.25
2023-05-14T18:06:15.864Z,42.06
2023-05-14T18:09:00.998Z,40.77
2023-05-14T18:11:46.040Z,41.25
2023-05-14T18:14:33.828Z,41.35
2023-05-14T18:17:18.737Z,41.98
2023-05-14T18:20:03.649Z,42.56
2023-05-14T18:22:48.558Z,43.23
2023-05-14T18:25:33.308Z,43.54
2023-05-14T18:28:18.379Z,43.79
2023-05-14T18:31:03.087Z,44.04
2023-05-14T18:33:50.979Z,44.93
2023-05-14T18:36:35.884Z,43.83
2023-05-14T18:39:21.550Z,44.85
2023-05-14T18:42:06.443Z,44.06
2023-05-14T18:44:51.636Z,45.38
2023-05-14T18:47:36.959Z,45.05
2023-05-14T18:50:23.673Z,44.70
2023-05-14T18:53:08.530Z,44.84
2023-05-14T18:55:54.246Z,44.88
2023-05-14T18:58:39.349Z,44.86
2023-05-14T19:01:24.356Z,45.05
2023-05-14T19:04:09.807Z,44.92
2023-05-14T19:06:55.143Z,45.19
2023-05-14T19:09:40.225Z,44.67
2023-05-14T19:12:25.638Z,44.01
2023-05-14T19:15:10.498Z,44.88
2023-05-14T19:17:56.954Z,45.66
2023-05-14T19:20:43.479Z,46.87
2023-05-14T19:23:28.743Z,46.59
2023-05-14T19:26:17.317Z,46.90
2023-05-14T19:29:02.690Z,46.82
2023-05-14T19:31:49.614Z,46.77
2023-05-14T19:34:35.010Z,46.72
2023-05-14T19:37:20.025Z,46.76
2023-05-14T19:40:04.805Z,47.28
2023-05-14T19:42:51.314Z,47.24
2023-05-14T19:45:36.356Z,48.44
2023-05-14T19:48:21.971Z,48.57
2023-05-14T19:51:07.334Z,48.48
2023-05-14T19:53:52.842Z,49.29
2023-05-14T19:56:38.310Z,49.66
2023-05-14T19:59:23.574Z,49.50
2023-05-14T20:02:08.402Z,49.43
2023-05-14T20:04:53.821Z,49.67
2023-05-14T20:07:40.394Z,49.71
2023-05-14T20:10:25.877Z,49.51
2023-05-14T20:13:12.072Z,49.66
2023-05-14T20:15:57.258Z,50.01
2023-05-14T20:18:42.204Z,50.38
2023-05-14T20:21:27.299Z,50.28
2023-05-14T20:24:14.114Z,50.08
2023-05-14T20:27:00.154Z,50.71
2023-05-14T20:29:45.810Z,50.61
2023-05-14T20:32:30.617Z,50.72
2023-05-14T20:35:15.664Z,50.85
2023-05-14T20:38:00.572Z,50.35
2023-05-14T20:40:45.527Z,50.56
2023-05-14T20:43:30.512Z,50.05
2023-05-14T20:46:15.377Z,50.01
2023-05-14T20:49:00.366Z,49.96
2023-05-14T20:51:45.123Z,50.23
2023-05-14T20:54:30.106Z,49.93
2023-05-14T20:57:14.943Z,50.27
2023-05-14T20:59:59.940Z,50.84
2023-05-14T21:02:44.983Z,51.14
2023-05-14T21:05:29.979Z,51.02
2023-05-14T21:08:14.936Z,50.93
2023-05-14T21:10:59.851Z,50.78
2023-05-14T21:13:44.885Z,50.73
2023-05-14T21:16:29.919Z,50.98
2023-05-14T21:19:15.979Z,51.24
2023-05-14T21:22:00.821Z,51.74
2023-05-14T21:24:45.583Z,51.23
2023-05-14T21:27:30.499Z,51.33
2023-05-14T21:30:15.403Z,51.32
2023-05-14T21:33:00.619Z,51.21
2023-05-14T21:35:45.587Z,51.56
2023-05-14T21:38:30.620Z,51.62
2023-05-14T21:41:15.623Z,51.44
2023-05-14T21:44:00.577Z,51.26
2023-05-14T21:46:45.531Z,50.72
2023-05-14T21:49:30.500Z,50.97
2023-05-14T21:52:15.601Z,51.03
2023-05-14T21:55:00.458Z,51.23
2023-05-14T21:57:45.683Z,51.48
2023-05-14T22:00:30.608Z,52.11
2023-05-14T22:03:15.697Z,52.26
2023-05-14T22:06:00.468Z,52.90
2023-05-14T22:08:45.563Z,52.68
2023-05-14T22:11:30.379Z,52.77
2023-05-14T22:14:15.410Z,52.99
2023-05-14T22:17:00.487Z,53.20
2023-05-14T22:19:45.494Z,52.76
2023-05-14T22:22:30.508Z,52.34
2023-05-14T22:25:15.324Z,52.53
2023-05-14T22:28:00.430Z,52.61
2023-05-14T22:30:45.587Z,52.38
2023-05-14T22:33:30.592Z,51.79
2023-05-14T22:36:15.736Z,51.36
2023-05-14T22:39:00.580Z,51.33
2023-05-14T22:41:45.548Z,52.05
2023-05-14T22:44:30.417Z,52.32
2023-05-14T22:47:15.409Z,52.42
2023-05-14T22:50:00.292Z,52.46
2023-05-14T22:52:45.414Z,52.85
2023-05-14T22:55:30.399Z,54.42
2023-05-14T22:58:15.515Z,55.18
2023-05-14T23:01:00.671Z,55.09
2023-05-14T23:03:45.671Z,54.96
2023-05-14T23:06:30.792Z,54.56
2023-05-14T23:09:15.716Z,54.29
2023-05-14T23:12:00.751Z,54.76
2023-05-14T23:14:45.675Z,55.54
2023-05-14T23:17:30.780Z,55.29
2023-05-14T23:20:15.750Z,55.24
2023-05-14T23:23:00.689Z,54.83
2023-05-14T23:25:45.659Z,54.19
2023-05-14T23:28:30.542Z,54.25
2023-05-14T23:31:15.531Z,54.04
2023-05-14T23:34:00.416Z,54.42
2023-05-14T23:36:45.077Z,54.13
2023-05-14T23:39:30.091Z,53.76
2023-05-14T23:42:14.983Z,54.32
2023-05-14T23:44:59.885Z,54.33
2023-05-14T23:47:44.844Z,54.49
2023-05-14T23:50:29.783Z,54.14
2023-05-14T23:53:14.649Z,54.54
2023-05-14T23:55:59.496Z,54.57
2023-05-14T23:58:44.305Z,54.67
